sensor_id;sensor_type;location;lat;lon;timestamp;pressure;altitude;pressure_sealevel;temperature;humidity
60319;BME280;46163;52.306;5.634;2023-06-04T00:01:22;102176.16;;;10.76;63.13
60319;BME280;46163;52.306;5.634;2023-06-04T00:03:48;102178.84;;;10.76;63.16
60319;BME280;46163;52.306;5.634;2023-06-04T00:06:13;102183.34;;;10.68;63.50
60319;BME280;46163;52.306;5.634;2023-06-04T00:08:41;102180.19;;;10.56;63.94
60319;BME280;46163;52.306;5.634;2023-06-04T00:11:06;102184.22;;;10.52;64.27
60319;BME280;46163;52.306;5.634;2023-06-04T00:13:34;102186.34;;;10.48;64.39
60319;BME280;46163;52.306;5.634;2023-06-04T00:15:59;102186.53;;;10.39;64.36
60319;BME280;46163;52.306;5.634;2023-06-04T00:18:25;102186.53;;;10.39;64.82
60319;BME280;46163;52.306;5.634;2023-06-04T00:20:50;102184.53;;;10.33;64.50
60319;BME280;46163;52.306;5.634;2023-06-04T00:23:16;102190.00;;;10.23;64.23
60319;BME280;46163;52.306;5.634;2023-06-04T00:25:41;102187.00;;;10.10;65.75
60319;BME280;46163;52.306;5.634;2023-06-04T00:28:07;102189.81;;;10.08;65.44
60319;BME280;46163;52.306;5.634;2023-06-04T00:30:32;102193.31;;;10.17;64.81
60319;BME280;46163;52.306;5.634;2023-06-04T00:32:58;102188.81;;;10.09;65.32
60319;BME280;46163;52.306;5.634;2023-06-04T00:35:24;102176.81;;;9.97;65.07
60319;BME280;46163;52.306;5.634;2023-06-04T00:37:49;102189.44;;;9.95;65.76
60319;BME280;46163;52.306;5.634;2023-06-04T00:40:15;102193.44;;;9.91;66.65
60319;BME280;46163;52.306;5.634;2023-06-04T00:42:41;102183.44;;;9.85;66.44
60319;BME280;46163;52.306;5.634;2023-06-04T00:45:07;102184.75;;;9.81;66.34
60319;BME280;46163;52.306;5.634;2023-06-04T00:47:35;102187.41;;;9.81;66.27
60319;BME280;46163;52.306;5.634;2023-06-04T00:50:03;102186.91;;;9.77;66.36
60319;BME280;46163;52.306;5.634;2023-06-04T00:52:29;102179.75;;;9.70;66.31
60319;BME280;46163;52.306;5.634;2023-06-04T00:54:55;102180.38;;;9.63;66.65
60319;BME280;46163;52.306;5.634;2023-06-04T00:57:23;102182.72;;;9.58;67.28
60319;BME280;46163;52.306;5.634;2023-06-04T00:59:49;102186.88;;;9.61;66.91
60319;BME280;46163;52.306;5.634;2023-06-04T01:02:18;102192.00;;;9.54;67.38
60319;BME280;46163;52.306;5.634;2023-06-04T01:07:38;102188.34;;;9.47;67.72
60319;BME280;46163;52.306;5.634;2023-06-04T01:10:06;102187.97;;;9.42;66.81
60319;BME280;46163;52.306;5.634;2023-06-04T01:12:38;102187.13;;;9.42;67.61
60319;BME280;46163;52.306;5.634;2023-06-04T01:15:07;102191.59;;;9.33;67.84
60319;BME280;46163;52.306;5.634;2023-06-04T01:17:39;102190.91;;;9.31;67.76
60319;BME280;46163;52.306;5.634;2023-06-04T01:20:16;102183.75;;;9.23;67.93
60319;BME280;46163;52.306;5.634;2023-06-04T01:22:52;102189.22;;;9.22;68.25
60319;BME280;46163;52.306;5.634;2023-06-04T01:25:38;102191.88;;;9.22;67.85
60319;BME280;46163;52.306;5.634;2023-06-04T01:28:12;102190.16;;;9.13;68.72
60319;BME280;46163;52.306;5.634;2023-06-04T01:30:45;102184.66;;;9.06;69.09
60319;BME280;46163;52.306;5.634;2023-06-04T01:33:15;102190.00;;;9.14;68.13
60319;BME280;46163;52.306;5.634;2023-06-04T01:35:42;102191.47;;;9.09;68.67
60319;BME280;46163;52.306;5.634;2023-06-04T01:38:08;102182.97;;;9.05;68.07
60319;BME280;46163;52.306;5.634;2023-06-04T01:40:34;102183.97;;;9.04;69.06
60319;BME280;46163;52.306;5.634;2023-06-04T01:43:03;102188.75;;;9.00;68.73
60319;BME280;46163;52.306;5.634;2023-06-04T01:45:29;102185.09;;;9.01;68.79
60319;BME280;46163;52.306;5.634;2023-06-04T01:47:55;102193.78;;;9.03;68.72
60319;BME280;46163;52.306;5.634;2023-06-04T01:50:22;102189.41;;;9.02;68.83
60319;BME280;46163;52.306;5.634;2023-06-04T01:52:48;102184.94;;;9.03;69.03
60319;BME280;46163;52.306;5.634;2023-06-04T01:55:15;102182.16;;;9.04;68.56
60319;BME280;46163;52.306;5.634;2023-06-04T01:57:42;102182.28;;;9.03;68.04
60319;BME280;46163;52.306;5.634;2023-06-04T02:00:10;102183.59;;;8.99;68.43
60319;BME280;46163;52.306;5.634;2023-06-04T02:02:40;102172.78;;;8.92;68.61
60319;BME280;46163;52.306;5.634;2023-06-04T02:05:07;102187.56;;;8.95;69.16
60319;BME280;46163;52.306;5.634;2023-06-04T02:07:40;102192.34;;;8.91;68.39
60319;BME280;46163;52.306;5.634;2023-06-04T02:10:10;102187.53;;;8.87;69.69
60319;BME280;46163;52.306;5.634;2023-06-04T02:12:37;102188.66;;;8.84;69.20
60319;BME280;46163;52.306;5.634;2023-06-04T02:15:04;102181.00;;;8.81;68.78
60319;BME280;46163;52.306;5.634;2023-06-04T02:17:30;102193.28;;;8.82;69.78
60319;BME280;46163;52.306;5.634;2023-06-04T02:19:58;102188.81;;;8.83;68.85
60319;BME280;46163;52.306;5.634;2023-06-04T02:22:25;102181.69;;;8.83;69.11
60319;BME280;46163;52.306;5.634;2023-06-04T02:24:51;102184.16;;;8.85;68.62
60319;BME280;46163;52.306;5.634;2023-06-04T02:27:17;102183.66;;;8.81;68.63
60319;BME280;46163;52.306;5.634;2023-06-04T02:29:42;102183.66;;;8.81;68.49
60319;BME280;46163;52.306;5.634;2023-06-04T02:32:11;102179.19;;;8.82;68.82
60319;BME280;46163;52.306;5.634;2023-06-04T02:34:36;102185.66;;;8.79;69.25
60319;BME280;46163;52.306;5.634;2023-06-04T02:37:02;102183.97;;;8.78;69.19
60319;BME280;46163;52.306;5.634;2023-06-04T02:39:28;102182.28;;;8.77;69.21
60319;BME280;46163;52.306;5.634;2023-06-04T02:41:56;102175.97;;;8.70;69.33
60319;BME280;46163;52.306;5.634;2023-06-04T02:44:22;102194.91;;;8.75;68.64
60319;BME280;46163;52.306;5.634;2023-06-04T02:46:49;102184.06;;;8.68;69.79
60319;BME280;46163;52.306;5.634;2023-06-04T02:49:17;102186.72;;;8.68;70.08
60319;BME280;46163;52.306;5.634;2023-06-04T02:51:43;102184.22;;;8.67;70.70
60319;BME280;46163;52.306;5.634;2023-06-04T02:54:09;102177.41;;;8.64;69.84
60319;BME280;46163;52.306;5.634;2023-06-04T02:56:36;102178.56;;;8.62;69.51
60319;BME280;46163;52.306;5.634;2023-06-04T02:59:03;102182.22;;;8.61;69.08
60319;BME280;46163;52.306;5.634;2023-06-04T03:01:29;102183.56;;;8.65;70.39
60319;BME280;46163;52.306;5.634;2023-06-04T03:03:55;102171.72;;;8.59;70.18
60319;BME280;46163;52.306;5.634;2023-06-04T03:06:22;102190.69;;;8.64;70.47
60319;BME280;46163;52.306;5.634;2023-06-04T03:08:49;102181.88;;;8.64;69.49
60319;BME280;46163;52.306;5.634;2023-06-04T03:11:16;102168.13;;;8.68;70.29
60319;BME280;46163;52.306;5.634;2023-06-04T03:13:41;102174.44;;;8.67;70.39
60319;BME280;46163;52.306;5.634;2023-06-04T03:16:07;102180.56;;;8.68;69.94
60319;BME280;46163;52.306;5.634;2023-06-04T03:18:42;102171.78;;;8.67;70.55
60319;BME280;46163;52.306;5.634;2023-06-04T03:21:08;102182.63;;;8.74;70.32
60319;BME280;46163;52.306;5.634;2023-06-04T03:23:34;102185.28;;;8.74;70.48
60319;BME280;46163;52.306;5.634;2023-06-04T03:26:01;102177.84;;;8.77;70.68
60319;BME280;46163;52.306;5.634;2023-06-04T03:28:27;102175.69;;;8.81;70.41
60319;BME280;46163;52.306;5.634;2023-06-04T03:30:52;102176.97;;;8.77;70.21
60319;BME280;46163;52.306;5.634;2023-06-04T03:33:18;102177.84;;;8.77;71.50
60319;BME280;46163;52.306;5.634;2023-06-04T03:35:49;102176.91;;;8.87;71.24
60319;BME280;46163;52.306;5.634;2023-06-04T03:38:15;102170.22;;;8.83;71.11
60319;BME280;46163;52.306;5.634;2023-06-04T03:40:41;102182.72;;;8.90;70.84
60319;BME280;46163;52.306;5.634;2023-06-04T03:43:06;102184.38;;;8.91;71.26
60319;BME280;46163;52.306;5.634;2023-06-04T03:45:34;102186.59;;;8.96;71.15
60319;BME280;46163;52.306;5.634;2023-06-04T03:48:00;102186.94;;;9.01;70.25
60319;BME280;46163;52.306;5.634;2023-06-04T03:50:25;102169.97;;;8.94;71.24
60319;BME280;46163;52.306;5.634;2023-06-04T03:52:51;102173.81;;;8.99;71.97
60319;BME280;46163;52.306;5.634;2023-06-04T03:55:16;102174.31;;;9.03;71.32
60319;BME280;46163;52.306;5.634;2023-06-04T03:57:42;102176.50;;;9.07;71.22
60319;BME280;46163;52.306;5.634;2023-06-04T04:00:09;102174.53;;;9.10;71.61
60319;BME280;46163;52.306;5.634;2023-06-04T04:02:39;102179.56;;;9.21;72.23
60319;BME280;46163;52.306;5.634;2023-06-04T04:05:08;102184.19;;;9.19;71.31
60319;BME280;46163;52.306;5.634;2023-06-04T04:07:35;102183.28;;;9.36;72.22
60319;BME280;46163;52.306;5.634;2023-06-04T04:10:01;102165.16;;;9.23;71.70
60319;BME280;46163;52.306;5.634;2023-06-04T04:12:29;102177.09;;;9.27;71.63
60319;BME280;46163;52.306;5.634;2023-06-04T04:14:55;102174.31;;;9.37;71.50
60319;BME280;46163;52.306;5.634;2023-06-04T04:17:20;102168.00;;;9.30;72.37
60319;BME280;46163;52.306;5.634;2023-06-04T04:19:46;102172.47;;;9.29;71.63
60319;BME280;46163;52.306;5.634;2023-06-04T04:22:13;102176.84;;;9.39;72.16
60319;BME280;46163;52.306;5.634;2023-06-04T04:24:43;102178.16;;;9.43;72.63
60319;BME280;46163;52.306;5.634;2023-06-04T04:27:09;102177.69;;;9.55;72.21
60319;BME280;46163;52.306;5.634;2023-06-04T04:29:37;102173.38;;;9.54;72.01
60319;BME280;46163;52.306;5.634;2023-06-04T04:32:06;102183.72;;;9.57;72.37
60319;BME280;46163;52.306;5.634;2023-06-04T04:34:52;102184.22;;;9.61;72.60
60319;BME280;46163;52.306;5.634;2023-06-04T04:37:19;102174.41;;;9.61;71.32
60319;BME280;46163;52.306;5.634;2023-06-04T04:39:47;102176.41;;;9.59;73.10
60319;BME280;46163;52.306;5.634;2023-06-04T04:42:18;102178.91;;;9.69;71.96
60319;BME280;46163;52.306;5.634;2023-06-04T04:44:44;102183.25;;;9.78;71.62
60319;BME280;46163;52.306;5.634;2023-06-04T04:47:16;102189.41;;;9.79;71.83
60319;BME280;46163;52.306;5.634;2023-06-04T04:49:41;102186.59;;;9.80;72.16
60319;BME280;46163;52.306;5.634;2023-06-04T04:52:07;102185.94;;;9.86;72.51
60319;BME280;46163;52.306;5.634;2023-06-04T04:54:33;102185.47;;;9.99;71.19
60319;BME280;46163;52.306;5.634;2023-06-04T04:56:58;102182.81;;;9.99;71.65
60319;BME280;46163;52.306;5.634;2023-06-04T04:59:24;102173.69;;;10.02;71.51
60319;BME280;46163;52.306;5.634;2023-06-04T05:01:51;102176.00;;;10.05;72.02
60319;BME280;46163;52.306;5.634;2023-06-04T05:04:19;102178.50;;;10.14;72.10
60319;BME280;46163;52.306;5.634;2023-06-04T05:06:44;102184.00;;;10.21;71.67
60319;BME280;46163;52.306;5.634;2023-06-04T05:09:10;102185.22;;;10.27;71.66
60319;BME280;46163;52.306;5.634;2023-06-04T05:11:35;102185.53;;;10.32;71.66
60319;BME280;46163;52.306;5.634;2023-06-04T05:14:01;102185.69;;;10.38;71.33
60319;BME280;46163;52.306;5.634;2023-06-04T05:16:26;102179.53;;;10.38;71.75
60319;BME280;46163;52.306;5.634;2023-06-04T05:18:53;102185.34;;;10.50;71.62
60319;BME280;46163;52.306;5.634;2023-06-04T05:21:22;102194.69;;;10.62;71.14
60319;BME280;46163;52.306;5.634;2023-06-04T05:23:47;102176.53;;;10.65;70.63
60319;BME280;46163;52.306;5.634;2023-06-04T05:26:13;102186.78;;;11.01;70.78
60319;BME280;46163;52.306;5.634;2023-06-04T05:28:39;102185.78;;;10.94;70.93
60319;BME280;46163;52.306;5.634;2023-06-04T05:31:09;102179.81;;;10.92;71.34
60319;BME280;46163;52.306;5.634;2023-06-04T05:33:35;102181.81;;;10.98;70.83
60319;BME280;46163;52.306;5.634;2023-06-04T05:36:01;102176.25;;;11.16;70.54
60319;BME280;46163;52.306;5.634;2023-06-04T05:38:27;102175.06;;;11.18;70.25
60319;BME280;46163;52.306;5.634;2023-06-04T05:40:56;102187.00;;;11.39;70.23
60319;BME280;46163;52.306;5.634;2023-06-04T05:43:22;102183.97;;;11.42;70.32
60319;BME280;46163;52.306;5.634;2023-06-04T05:45:48;102181.97;;;11.44;70.03
60319;BME280;46163;52.306;5.634;2023-06-04T05:48:14;102188.41;;;11.57;69.93
60319;BME280;46163;52.306;5.634;2023-06-04T05:50:43;102185.22;;;11.62;69.46
60319;BME280;46163;52.306;5.634;2023-06-04T05:53:09;102184.13;;;11.79;68.52
60319;BME280;46163;52.306;5.634;2023-06-04T05:55:35;102188.47;;;11.80;68.77
60319;BME280;46163;52.306;5.634;2023-06-04T05:58:00;102196.69;;;12.02;68.08
60319;BME280;46163;52.306;5.634;2023-06-04T06:00:26;102177.69;;;11.97;67.40
60319;BME280;46163;52.306;5.634;2023-06-04T06:02:51;102183.88;;;12.20;66.33
60319;BME280;46163;52.306;5.634;2023-06-04T06:05:20;102192.31;;;12.09;67.09
60319;BME280;46163;52.306;5.634;2023-06-04T06:07:46;102178.28;;;12.07;66.69
60319;BME280;46163;52.306;5.634;2023-06-04T06:10:13;102190.38;;;12.40;65.08
60319;BME280;46163;52.306;5.634;2023-06-04T06:12:39;102189.50;;;12.48;65.08
60319;BME280;46163;52.306;5.634;2023-06-04T06:15:05;102183.13;;;12.49;64.72
60319;BME280;46163;52.306;5.634;2023-06-04T06:17:31;102178.06;;;12.92;61.39
60319;BME280;46163;52.306;5.634;2023-06-04T06:19:58;102186.59;;;12.72;62.74
60319;BME280;46163;52.306;5.634;2023-06-04T06:22:24;102194.28;;;12.90;61.49
60319;BME280;46163;52.306;5.634;2023-06-04T06:24:49;102196.31;;;13.03;60.95
60319;BME280;46163;52.306;5.634;2023-06-04T06:27:15;102174.84;;;12.96;60.93
60319;BME280;46163;52.306;5.634;2023-06-04T06:29:42;102188.13;;;13.05;60.16
60319;BME280;46163;52.306;5.634;2023-06-04T06:32:08;102194.28;;;13.05;60.61
60319;BME280;46163;52.306;5.634;2023-06-04T06:34:34;102199.66;;;13.20;60.82
60319;BME280;46163;52.306;5.634;2023-06-04T06:37:00;102195.03;;;13.28;60.77
60319;BME280;46163;52.306;5.634;2023-06-04T06:39:25;102199.00;;;13.47;60.29
60319;BME280;46163;52.306;5.634;2023-06-04T06:41:51;102197.88;;;13.56;58.48
60319;BME280;46163;52.306;5.634;2023-06-04T06:44:17;102198.06;;;13.55;59.11
60319;BME280;46163;52.306;5.634;2023-06-04T06:46:42;102199.34;;;13.59;58.79
60319;BME280;46163;52.306;5.634;2023-06-04T06:49:08;102190.69;;;13.93;56.80
60319;BME280;46163;52.306;5.634;2023-06-04T06:51:33;102193.47;;;14.06;56.43
60319;BME280;46163;52.306;5.634;2023-06-04T06:53:59;102195.00;;;14.15;57.24
60319;BME280;46163;52.306;5.634;2023-06-04T06:56:24;102191.72;;;14.35;56.15
60319;BME280;46163;52.306;5.634;2023-06-04T06:58:52;102191.72;;;14.35;56.95
60319;BME280;46163;52.306;5.634;2023-06-04T07:01:17;102193.38;;;14.36;56.69
60319;BME280;46163;52.306;5.634;2023-06-04T07:03:43;102200.03;;;14.68;55.08
60319;BME280;46163;52.306;5.634;2023-06-04T07:06:09;102200.91;;;15.38;54.00
60319;BME280;46163;52.306;5.634;2023-06-04T07:08:35;102199.31;;;17.04;51.98
60319;BME280;46163;52.306;5.634;2023-06-04T07:11:03;102196.53;;;18.95;45.37
60319;BME280;46163;52.306;5.634;2023-06-04T07:13:29;102190.19;;;20.93;41.81
60319;BME280;46163;52.306;5.634;2023-06-04T07:15:57;102179.75;;;23.33;36.40
60319;BME280;46163;52.306;5.634;2023-06-04T07:18:23;102183.03;;;23.35;34.93
60319;BME280;46163;52.306;5.634;2023-06-04T07:20:48;102191.59;;;23.97;33.38
60319;BME280;46163;52.306;5.634;2023-06-04T07:23:14;102189.41;;;24.53;33.12
60319;BME280;46163;52.306;5.634;2023-06-04T07:25:40;102180.47;;;25.88;31.46
60319;BME280;46163;52.306;5.634;2023-06-04T07:31:27;102188.28;;;27.61;28.64
60319;BME280;46163;52.306;5.634;2023-06-04T07:33:52;102193.97;;;28.14;28.96
60319;BME280;46163;52.306;5.634;2023-06-04T07:36:18;102190.09;;;28.55;27.64
60319;BME280;46163;52.306;5.634;2023-06-04T07:38:46;102190.09;;;28.55;28.24
60319;BME280;46163;52.306;5.634;2023-06-04T07:41:12;102190.25;;;28.92;27.31
60319;BME280;46163;52.306;5.634;2023-06-04T07:43:37;102197.25;;;28.51;26.89
60319;BME280;46163;52.306;5.634;2023-06-04T07:46:03;102183.91;;;28.97;26.94
60319;BME280;46163;52.306;5.634;2023-06-04T07:48:29;102181.56;;;28.85;26.86
60319;BME280;46163;52.306;5.634;2023-06-04T07:51:01;102194.03;;;28.43;26.66
60319;BME280;46163;52.306;5.634;2023-06-04T07:53:27;102194.53;;;28.75;26.25
60319;BME280;46163;52.306;5.634;2023-06-04T07:55:53;102184.19;;;30.14;25.19
60319;BME280;46163;52.306;5.634;2023-06-04T07:58:19;102171.66;;;30.54;24.43
60319;BME280;46163;52.306;5.634;2023-06-04T08:00:49;102192.25;;;29.72;25.11
60319;BME280;46163;52.306;5.634;2023-06-04T08:03:14;102185.25;;;30.78;25.07
60319;BME280;46163;52.306;5.634;2023-06-04T08:05:40;102176.47;;;31.17;23.86
60319;BME280;46163;52.306;5.634;2023-06-04T08:08:06;102193.38;;;31.74;22.14
60319;BME280;46163;52.306;5.634;2023-06-04T08:10:34;102194.41;;;32.45;22.35
60319;BME280;46163;52.306;5.634;2023-06-04T08:13:00;102188.59;;;32.55;21.88
60319;BME280;46163;52.306;5.634;2023-06-04T08:15:25;102192.09;;;32.70;21.93
60319;BME280;46163;52.306;5.634;2023-06-04T08:17:51;102191.63;;;31.56;22.15
60319;BME280;46163;52.306;5.634;2023-06-04T08:20:16;102195.41;;;31.46;21.99
60319;BME280;46163;52.306;5.634;2023-06-04T08:22:42;102191.69;;;32.54;20.76
60319;BME280;46163;52.306;5.634;2023-06-04T08:25:09;102183.75;;;32.92;21.71
60319;BME280;46163;52.306;5.634;2023-06-04T08:27:34;102180.19;;;33.00;20.80
60319;BME280;46163;52.306;5.634;2023-06-04T08:30:00;102175.78;;;33.73;20.12
60319;BME280;46163;52.306;5.634;2023-06-04T08:32:26;102185.34;;;33.85;21.09
60319;BME280;46163;52.306;5.634;2023-06-04T08:34:51;102191.53;;;32.50;20.58
60319;BME280;46163;52.306;5.634;2023-06-04T08:37:17;102200.00;;;32.09;21.49
60319;BME280;46163;52.306;5.634;2023-06-04T08:39:43;102193.00;;;31.81;22.30
60319;BME280;46163;52.306;5.634;2023-06-04T08:42:15;102193.81;;;31.31;21.68
60319;BME280;46163;52.306;5.634;2023-06-04T08:44:46;102191.69;;;32.54;19.49
60319;BME280;46163;52.306;5.634;2023-06-04T08:47:17;102191.53;;;32.05;20.76
60319;BME280;46163;52.306;5.634;2023-06-04T08:49:50;102182.69;;;32.71;20.74
60319;BME280;46163;52.306;5.634;2023-06-04T08:52:16;102187.34;;;32.61;20.94
60319;BME280;46163;52.306;5.634;2023-06-04T08:54:42;102199.59;;;32.47;21.61
60319;BME280;46163;52.306;5.634;2023-06-04T08:57:09;102194.06;;;31.43;21.13
60319;BME280;46163;52.306;5.634;2023-06-04T08:59:36;102188.00;;;32.58;21.01
60319;BME280;46163;52.306;5.634;2023-06-04T09:02:05;102193.00;;;32.96;20.47
60319;BME280;46163;52.306;5.634;2023-06-04T09:04:32;102191.25;;;32.60;20.91
60319;BME280;46163;52.306;5.634;2023-06-04T09:07:01;102192.06;;;31.08;22.05
60319;BME280;46163;52.306;5.634;2023-06-04T09:09:30;102184.22;;;32.54;21.31
60319;BME280;46163;52.306;5.634;2023-06-04T09:11:57;102202.31;;;32.69;21.03
60319;BME280;46163;52.306;5.634;2023-06-04T09:14:25;102188.00;;;32.58;21.14
60319;BME280;46163;52.306;5.634;2023-06-04T09:16:52;102200.22;;;33.32;19.86
60319;BME280;46163;52.306;5.634;2023-06-04T09:19:19;102192.72;;;33.06;20.61
60319;BME280;46163;52.306;5.634;2023-06-04T09:21:52;102192.41;;;33.16;18.97
60319;BME280;46163;52.306;5.634;2023-06-04T09:24:22;102196.59;;;33.05;20.58
60319;BME280;46163;52.306;5.634;2023-06-04T09:26:48;102190.59;;;32.63;20.61
60319;BME280;46163;52.306;5.634;2023-06-04T09:29:15;102184.38;;;33.46;18.99
60319;BME280;46163;52.306;5.634;2023-06-04T09:31:41;102189.84;;;31.96;20.67
60319;BME280;46163;52.306;5.634;2023-06-04T09:34:09;102181.56;;;32.80;21.44
60319;BME280;46163;52.306;5.634;2023-06-04T09:36:36;102193.63;;;32.84;20.14
60319;BME280;46163;52.306;5.634;2023-06-04T09:39:16;102189.69;;;33.34;20.72
60319;BME280;46163;52.306;5.634;2023-06-04T09:41:41;102182.22;;;33.34;19.51
60319;BME280;46163;52.306;5.634;2023-06-04T09:44:07;102193.41;;;31.96;21.35
60319;BME280;46163;52.306;5.634;2023-06-04T09:46:36;102189.97;;;33.15;20.06
60319;BME280;46163;52.306;5.634;2023-06-04T09:51:52;102186.56;;;32.39;21.20
60319;BME280;46163;52.306;5.634;2023-06-04T09:54:18;102186.06;;;31.19;21.13
60319;BME280;46163;52.306;5.634;2023-06-04T09:56:43;102193.56;;;30.59;21.92
60319;BME280;46163;52.306;5.634;2023-06-04T09:59:09;102193.16;;;30.52;21.77
60319;BME280;46163;52.306;5.634;2023-06-04T10:01:39;102188.31;;;30.76;22.50
60319;BME280;46163;52.306;5.634;2023-06-04T10:04:09;102184.34;;;31.60;21.42
60319;BME280;46163;52.306;5.634;2023-06-04T10:06:38;102193.59;;;30.73;22.04
60319;BME280;46163;52.306;5.634;2023-06-04T10:09:07;102186.19;;;30.87;21.95
60319;BME280;46163;52.306;5.634;2023-06-04T10:11:39;102182.19;;;31.07;20.93
60319;BME280;46163;52.306;5.634;2023-06-04T10:14:34;102188.81;;;29.99;22.15
60319;BME280;46163;52.306;5.634;2023-06-04T10:17:03;102189.69;;;29.95;22.65
60319;BME280;46163;52.306;5.634;2023-06-04T10:19:29;102192.78;;;28.84;23.55
60319;BME280;46163;52.306;5.634;2023-06-04T10:21:56;102200.72;;;29.33;23.49
60319;BME280;46163;52.306;5.634;2023-06-04T10:24:22;102190.84;;;29.75;22.49
60319;BME280;46163;52.306;5.634;2023-06-04T10:26:49;102196.66;;;29.87;23.13
60319;BME280;46163;52.306;5.634;2023-06-04T10:29:18;102187.41;;;28.50;24.75
60319;BME280;46163;52.306;5.634;2023-06-04T10:31:43;102193.97;;;28.14;23.95
60319;BME280;46163;52.306;5.634;2023-06-04T10:34:11;102187.25;;;27.57;25.05
60319;BME280;46163;52.306;5.634;2023-06-04T10:36:44;102195.25;;;26.59;25.58
60319;BME280;46163;52.306;5.634;2023-06-04T10:39:11;102192.75;;;25.86;26.99
60319;BME280;46163;52.306;5.634;2023-06-04T10:41:37;102174.41;;;25.66;27.94
60319;BME280;46163;52.306;5.634;2023-06-04T10:44:02;102188.63;;;25.78;27.20
60319;BME280;46163;52.306;5.634;2023-06-04T10:46:38;102186.81;;;25.26;28.19
60319;BME280;46163;52.306;5.634;2023-06-04T10:49:09;102187.06;;;24.72;28.81
60319;BME280;46163;52.306;5.634;2023-06-04T10:51:39;102184.66;;;24.81;29.80
60319;BME280;46163;52.306;5.634;2023-06-04T10:54:06;102181.69;;;24.83;29.37
60319;BME280;46163;52.306;5.634;2023-06-04T10:56:34;102179.44;;;24.69;29.66
60319;BME280;46163;52.306;5.634;2023-06-04T10:59:12;102184.38;;;24.77;30.04
60319;BME280;46163;52.306;5.634;2023-06-04T11:01:41;102187.13;;;24.13;30.31
60319;BME280;46163;52.306;5.634;2023-06-04T11:04:06;102185.53;;;23.85;30.83
60319;BME280;46163;52.306;5.634;2023-06-04T11:06:34;102189.97;;;23.69;31.37
60319;BME280;46163;52.306;5.634;2023-06-04T11:09:04;102179.25;;;23.36;31.69
60319;BME280;46163;52.306;5.634;2023-06-04T11:11:33;102187.00;;;23.27;32.46
60319;BME280;46163;52.306;5.634;2023-06-04T11:16:32;102165.84;;;22.69;33.03
60319;BME280;46163;52.306;5.634;2023-06-04T11:18:57;102187.75;;;22.84;33.05
60319;BME280;46163;52.306;5.634;2023-06-04T11:21:24;102173.97;;;23.02;32.51
60319;BME280;46163;52.306;5.634;2023-06-04T11:23:57;102179.38;;;23.24;31.13
60319;BME280;46163;52.306;5.634;2023-06-04T11:28:53;102169.72;;;22.39;33.54
60319;BME280;46163;52.306;5.634;2023-06-04T11:31:21;102159.50;;;22.24;33.89
60319;BME280;46163;52.306;5.634;2023-06-04T11:33:51;102152.97;;;22.09;33.63
60319;BME280;46163;52.306;5.634;2023-06-04T11:38:57;102157.50;;;22.20;34.36
60319;BME280;46163;52.306;5.634;2023-06-04T11:41:26;102159.78;;;22.11;34.23
60319;BME280;46163;52.306;5.634;2023-06-04T11:43:55;102157.09;;;22.11;33.87
60319;BME280;46163;52.306;5.634;2023-06-04T11:46:20;102166.91;;;22.00;34.13
60319;BME280;46163;52.306;5.634;2023-06-04T11:51:12;102151.75;;;21.88;35.34
60319;BME280;46163;52.306;5.634;2023-06-04T11:53:37;102143.91;;;22.03;34.49
60319;BME280;46163;52.306;5.634;2023-06-04T11:58:31;102164.19;;;22.00;34.10
60319;BME280;46163;52.306;5.634;2023-06-04T12:00:57;102156.63;;;22.02;33.82
60319;BME280;46163;52.306;5.634;2023-06-04T12:05:50;102154.13;;;22.13;34.12
60319;BME280;46163;52.306;5.634;2023-06-04T12:08:16;102129.97;;;22.28;34.23
60319;BME280;46163;52.306;5.634;2023-06-04T12:10:42;102145.78;;;22.02;34.45
60319;BME280;46163;52.306;5.634;2023-06-04T12:13:09;102111.66;;;21.56;35.06
60319;BME280;46163;52.306;5.634;2023-06-04T12:15:35;102143.44;;;22.23;34.80
60319;BME280;46163;52.306;5.634;2023-06-04T12:18:03;102134.16;;;22.36;34.10
60319;BME280;46163;52.306;5.634;2023-06-04T12:20:33;102140.31;;;22.31;34.85
60319;BME280;46163;52.306;5.634;2023-06-04T12:22:59;102135.78;;;22.53;34.42
60319;BME280;46163;52.306;5.634;2023-06-04T12:27:56;102127.81;;;22.30;33.67
60319;BME280;46163;52.306;5.634;2023-06-04T12:32:54;102141.47;;;22.52;34.25
60319;BME280;46163;52.306;5.634;2023-06-04T12:35:19;102141.94;;;22.49;34.75
60319;BME280;46163;52.306;5.634;2023-06-04T12:37:45;102129.13;;;22.44;34.17
60319;BME280;46163;52.306;5.634;2023-06-04T12:40:10;102135.34;;;22.62;34.05
60319;BME280;46163;52.306;5.634;2023-06-04T12:42:36;102145.03;;;22.74;34.72
60319;BME280;46163;52.306;5.634;2023-06-04T12:47:34;102145.22;;;22.68;35.00
60319;BME280;46163;52.306;5.634;2023-06-04T12:49:59;102143.97;;;22.58;33.35
60319;BME280;46163;52.306;5.634;2023-06-04T12:52:29;102068.50;;;22.00;33.34
60319;BME280;46163;52.306;5.634;2023-06-04T12:54:54;102140.03;;;22.49;33.87
60319;BME280;46163;52.306;5.634;2023-06-04T12:57:19;102131.44;;;22.36;33.88
60319;BME280;46163;52.306;5.634;2023-06-04T12:59:45;102144.66;;;22.49;34.31
60319;BME280;46163;52.306;5.634;2023-06-04T13:02:10;102134.44;;;22.56;34.51
60319;BME280;46163;52.306;5.634;2023-06-04T13:04:36;102124.22;;;22.24;34.06
60319;BME280;46163;52.306;5.634;2023-06-04T13:07:01;102144.19;;;22.35;33.66
60319;BME280;46163;52.306;5.634;2023-06-04T13:11:55;102131.28;;;22.42;33.62
60319;BME280;46163;52.306;5.634;2023-06-04T13:14:23;102141.81;;;23.16;33.21
60319;BME280;46163;52.306;5.634;2023-06-04T13:16:48;102129.03;;;23.17;33.53
60319;BME280;46163;52.306;5.634;2023-06-04T13:19:16;102132.00;;;23.15;34.08
60319;BME280;46163;52.306;5.634;2023-06-04T13:21:41;102132.09;;;23.20;33.30
60319;BME280;46163;52.306;5.634;2023-06-04T13:26:38;102129.28;;;23.15;33.03
60319;BME280;46163;52.306;5.634;2023-06-04T13:29:04;102127.06;;;23.34;32.77